Time;durP1;ratioP1;P1;durP2;ratioP2;P2;SDS_P1;SDS_P2;PMS_P1;PMS_P2;Temp;Humidity;BMP_temperature;BMP_pressure;BME280_temperature;BME280_humidity;BME280_pressure;Samples;Min_cycle;Max_cycle;Signal;HPM_P1;HPM_P2
2024/01/17 00:01:29;;;;;;;5.43;1.77;;;;;;;-2.94;100.00;99811.16;5955636;29;20396;-75
2024/01/17 00:04:25;;;;;;;3.27;1.43;;;;;;;-3.11;100.00;99785.31;5955019;29;20083;-76
2024/01/17 00:07:20;;;;;;;2.50;1.15;;;;;;;-3.02;100.00;99797.78;5940994;29;20036;-75
2024/01/17 00:10:16;;;;;;;3.50;1.70;;;;;;;-3.06;100.00;99783.28;5955873;29;20498;-75
2024/01/17 00:13:11;;;;;;;6.68;2.40;;;;;;;-3.12;100.00;99781.03;5955417;29;20043;-76
2024/01/17 00:16:07;;;;;;;3.50;1.50;;;;;;;-3.09;100.00;99770.50;5951620;29;20040;-74
2024/01/17 00:19:02;;;;;;;4.80;1.70;;;;;;;-3.16;100.00;99759.66;5942930;29;20043;-74
2024/01/17 00:21:57;;;;;;;7.70;1.77;;;;;;;-3.17;100.00;99747.59;5935955;29;20043;-76
2024/01/17 00:24:53;;;;;;;4.03;1.70;;;;;;;-3.26;100.00;99742.91;5947294;29;20514;-75
2024/01/17 00:27:49;;;;;;;3.90;1.43;;;;;;;-3.20;100.00;99752.09;5953622;29;20036;-75
2024/01/17 00:30:44;;;;;;;3.25;0.93;;;;;;;-3.31;100.00;99741.47;5950751;29;20118;-75
2024/01/17 00:33:39;;;;;;;5.20;2.00;;;;;;;-3.25;100.00;99741.16;5955571;29;20023;-75
2024/01/17 00:36:35;;;;;;;5.83;1.53;;;;;;;-3.21;100.00;99745.25;5948754;29;20107;-75
2024/01/17 00:39:30;;;;;;;8.10;2.73;;;;;;;-3.22;100.00;99734.06;5954217;29;20400;-74
2024/01/17 00:42:26;;;;;;;4.57;1.57;;;;;;;-3.27;100.00;99714.50;5955482;29;20028;-74
2024/01/17 00:45:21;;;;;;;10.27;2.13;;;;;;;-3.26;100.00;99716.19;5951865;29;20028;-75
2024/01/17 00:48:18;;;;;;;8.17;2.10;;;;;;;-3.24;100.00;99719.50;5948974;29;20070;-74
2024/01/17 00:51:23;;;;;;;5.20;2.20;;;;;;;-3.26;100.00;99711.81;5955493;29;20032;-74
2024/01/17 00:54:18;;;;;;;6.15;2.22;;;;;;;-3.27;100.00;99709.31;5950588;29;20035;-74
2024/01/17 00:57:14;;;;;;;9.00;2.50;;;;;;;-3.26;100.00;99695.44;5954291;29;20044;-74
2024/01/17 01:00:09;;;;;;;2.40;1.10;;;;;;;-3.15;100.00;99706.03;5944812;29;20078;-74
2024/01/17 01:03:04;;;;;;;5.82;2.22;;;;;;;-3.14;100.00;99692.16;5953488;29;20091;-73
2024/01/17 01:06:00;;;;;;;6.53;2.53;;;;;;;-3.07;100.00;99696.91;5949792;29;20050;-74
2024/01/17 01:08:55;;;;;;;10.33;2.70;;;;;;;-3.10;100.00;99685.91;5953661;28;20075;-74
2024/01/17 01:11:51;;;;;;;6.93;2.13;;;;;;;-3.05;100.00;99689.06;5955087;29;20287;-74
2024/01/17 01:14:46;;;;;;;3.50;1.48;;;;;;;-3.07;100.00;99676.16;5954685;29;20047;-74
2024/01/17 01:17:41;;;;;;;7.77;2.27;;;;;;;-3.05;100.00;99683.88;5948885;29;20036;-74
2024/01/17 01:20:37;;;;;;;7.13;1.77;;;;;;;-3.04;100.00;99675.16;5952825;29;20035;-73
2024/01/17 01:23:32;;;;;;;9.43;1.90;;;;;;;-3.06;100.00;99667.47;5950112;29;20036;-73
2024/01/17 01:26:27;;;;;;;6.13;2.27;;;;;;;-3.03;100.00;99672.50;5951952;29;20282;-74
2024/01/17 01:29:23;;;;;;;5.03;1.67;;;;;;;-2.97;100.00;99673.91;5956557;29;20039;-74
2024/01/17 01:32:18;;;;;;;2.13;1.17;;;;;;;-3.04;100.00;99657.00;5952208;29;20111;-74
2024/01/17 01:35:13;;;;;;;5.30;2.40;;;;;;;-2.98;100.00;99653.22;5954909;29;20491;-74
2024/01/17 01:38:09;;;;;;;6.67;2.30;;;;;;;-2.98;100.00;99656.66;5948345;29;20123;-73
2024/01/17 01:41:04;;;;;;;5.80;1.90;;;;;;;-2.98;100.00;99651.47;5956798;29;20428;-73
2024/01/17 01:43:59;;;;;;;3.70;1.53;;;;;;;-2.98;100.00;99658.41;5945249;29;20268;-73
2024/01/17 01:46:55;;;;;;;3.83;1.33;;;;;;;-2.98;100.00;99646.28;5956411;29;20032;-73
2024/01/17 01:49:51;;;;;;;6.75;2.35;;;;;;;-3.06;100.00;99640.72;5945126;29;20288;-74
2024/01/17 01:52:48;;;;;;;6.63;1.85;;;;;;;-3.01;100.00;99633.50;5954498;29;20044;-73
2024/01/17 01:55:43;;;;;;;9.80;2.20;;;;;;;-3.10;100.00;99624.50;5945034;29;20044;-74
2024/01/17 01:58:42;;;;;;;5.10;2.03;;;;;;;-3.14;100.00;99616.97;5955907;29;20062;-74
2024/01/17 02:01:39;;;;;;;8.25;2.65;;;;;;;-3.11;100.00;99632.38;5950164;29;20127;-73
2024/01/17 02:04:34;;;;;;;5.57;2.42;;;;;;;-3.19;100.00;99625.03;5942234;29;20024;-74
2024/01/17 02:07:30;;;;;;;6.68;2.35;;;;;;;-3.30;100.00;99614.44;5951244;29;20028;-73
2024/01/17 02:10:26;;;;;;;7.93;2.60;;;;;;;-3.28;100.00;99616.94;5949175;29;20048;-74
2024/01/17 02:13:21;;;;;;;4.60;2.73;;;;;;;-3.33;100.00;99613.75;5957489;29;20040;-73
2024/01/17 02:16:17;;;;;;;5.93;1.73;;;;;;;-3.32;100.00;99629.25;5956246;29;20050;-73
2024/01/17 02:19:15;;;;;;;6.60;2.95;;;;;;;-3.29;100.00;99628.22;5959575;29;20305;-74
2024/01/17 02:22:11;;;;;;;10.60;2.95;;;;;;;-3.33;100.00;99621.53;5950808;29;20028;-73
2024/01/17 02:25:06;;;;;;;7.53;3.20;;;;;;;-3.35;100.00;99613.88;5958416;28;20114;-73
2024/01/17 02:28:03;;;;;;;9.93;3.80;;;;;;;-3.30;100.00;99617.03;5947509;29;20031;-73
2024/01/17 02:30:59;;;;;;;13.85;4.15;;;;;;;-3.38;100.00;99597.66;5948016;29;20032;-73
2024/01/17 02:33:54;;;;;;;9.05;3.80;;;;;;;-3.33;100.00;99595.63;5946575;29;20143;-73
2024/01/17 02:36:49;;;;;;;14.53;3.57;;;;;;;-3.32;100.00;99584.34;5957990;29;20075;-73
2024/01/17 02:39:45;;;;;;;10.27;4.40;;;;;;;-3.33;100.00;99593.03;5953507;29;20133;-73
2024/01/17 02:42:40;;;;;;;13.23;4.67;;;;;;;-3.30;100.00;99590.28;5950288;29;20110;-73
2024/01/17 02:45:35;;;;;;;10.37;4.23;;;;;;;-3.34;100.00;99581.03;5958608;29;20464;-73
2024/01/17 02:48:31;;;;;;;11.25;4.88;;;;;;;-3.38;100.00;99566.56;5955509;29;20354;-74
2024/01/17 02:51:26;;;;;;;15.50;5.40;;;;;;;-3.35;100.00;99569.81;5948330;29;20075;-73
2024/01/17 02:54:21;;;;;;;13.37;5.43;;;;;;;-3.34;100.00;99565.47;5939178;29;20039;-73
2024/01/17 02:57:20;;;;;;;16.73;4.13;;;;;;;-3.40;100.00;99553.69;5949913;29;20051;-73
2024/01/17 03:00:15;;;;;;;10.20;3.55;;;;;;;-3.39;100.00;99554.50;5953321;29;20063;-73
2024/01/17 03:03:11;;;;;;;10.55;3.70;;;;;;;-3.49;100.00;99543.00;5949253;29;20472;-73
2024/01/17 03:06:06;;;;;;;20.60;5.50;;;;;;;-3.53;100.00;99531.16;5956573;29;20074;-73
2024/01/17 03:09:01;;;;;;;11.33;3.87;;;;;;;-3.48;100.00;99539.50;5951850;29;20083;-72
2024/01/17 03:11:57;;;;;;;13.80;3.75;;;;;;;-3.52;100.00;99538.00;5941828;29;20065;-72
2024/01/17 03:14:52;;;;;;;13.03;4.33;;;;;;;-3.61;100.00;99541.94;5947819;29;20035;-73
2024/01/17 03:17:47;;;;;;;7.47;3.67;;;;;;;-3.73;100.00;99546.06;5955228;29;20614;-72
2024/01/17 03:20:43;;;;;;;16.40;3.80;;;;;;;-3.85;100.00;99528.63;5955911;29;20110;-72
2024/01/17 03:23:38;;;;;;;12.07;3.30;;;;;;;-3.82;100.00;99540.56;5953723;29;20534;-73
2024/01/17 03:26:34;;;;;;;11.63;3.03;;;;;;;-3.94;100.00;99523.94;5953790;29;20130;-72
2024/01/17 03:29:29;;;;;;;7.43;2.72;;;;;;;-3.95;100.00;99513.69;5941783;29;20060;-72
2024/01/17 03:32:24;;;;;;;15.17;3.37;;;;;;;-4.05;100.00;99495.22;5947095;29;20042;-72
2024/01/17 03:35:19;;;;;;;12.50;4.20;;;;;;;-4.00;100.00;99485.47;5951633;29;20031;-72
2024/01/17 03:38:18;;;;;;;12.47;3.93;;;;;;;-3.95;100.00;99467.94;5954368;28;20044;-72
2024/01/17 03:41:13;;;;;;;12.35;3.47;;;;;;;-3.95;100.00;99446.38;5947590;29;20199;-72
2024/01/17 03:44:09;;;;;;;13.05;5.22;;;;;;;-3.84;100.00;99460.41;5956686;29;20027;-73
2024/01/17 03:47:04;;;;;;;10.10;4.10;;;;;;;-3.82;100.00;99437.00;5954430;29;20591;-72
2024/01/17 03:49:59;;;;;;;14.80;4.33;;;;;;;-3.78;100.00;99431.53;5946331;29;20483;-72
2024/01/17 03:52:55;;;;;;;13.53;4.77;;;;;;;-3.83;100.00;99415.44;5940552;28;20131;-72
2024/01/17 03:55:50;;;;;;;14.17;3.37;;;;;;;-3.77;100.00;99412.50;5948753;29;20050;-73
2024/01/17 03:58:45;;;;;;;12.03;4.77;;;;;;;-3.71;100.00;99419.94;5944374;29;20670;-71
2024/01/17 04:01:42;;;;;;;13.87;3.97;;;;;;;-3.80;100.00;99410.09;5947425;29;20039;-72
2024/01/17 04:04:41;;;;;;;9.15;3.53;;;;;;;-3.79;100.00;99396.22;5951316;29;20467;-72
2024/01/17 04:07:36;;;;;;;14.80;5.03;;;;;;;-3.85;100.00;99401.75;5955363;29;20056;-72
2024/01/17 04:10:31;;;;;;;11.93;4.60;;;;;;;-3.89;100.00;99389.94;5950909;29;20495;-73
2024/01/17 04:13:27;;;;;;;18.15;4.68;;;;;;;-3.81;100.00;99399.84;5942733;29;20186;-72
2024/01/17 04:16:22;;;;;;;13.80;6.13;;;;;;;-3.84;100.00;99385.31;5953389;29;20036;-72
2024/01/17 04:19:17;;;;;;;12.23;4.53;;;;;;;-3.68;100.00;99405.97;5955517;29;20039;-72
2024/01/17 04:22:12;;;;;;;14.67;4.83;;;;;;;-3.72;100.00;99386.34;5952666;29;20040;-72
2024/01/17 04:25:08;;;;;;;12.57;4.00;;;;;;;-3.52;100.00;99398.13;5942655;29;20415;-72
2024/01/17 04:28:06;;;;;;;11.50;5.03;;;;;;;-3.56;100.00;99386.28;5950314;29;20032;-73
2024/01/17 04:31:02;;;;;;;8.15;3.20;;;;;;;-3.67;100.00;99372.19;5949906;29;20302;-72
2024/01/17 04:33:59;;;;;;;7.57;4.00;;;;;;;-3.61;100.00;99378.78;5948080;29;20388;-72
2024/01/17 04:36:55;;;;;;;13.25;4.43;;;;;;;-3.56;100.00;99375.94;5955551;29;20386;-72
2024/01/17 04:39:50;;;;;;;10.20;3.63;;;;;;;-3.65;100.00;99354.84;5954882;29;20032;-72
2024/01/17 04:42:48;;;;;;;11.10;3.40;;;;;;;-3.62;100.00;99356.41;5947289;29;20408;-71
2024/01/17 04:45:44;;;;;;;14.60;5.47;;;;;;;-3.58;100.00;99357.03;5953048;29;20315;-73
2024/01/17 04:48:43;;;;;;;11.95;4.55;;;;;;;-3.55;100.00;99351.69;5946146;29;20402;-72
2024/01/17 04:51:38;;;;;;;16.05;5.82;;;;;;;-3.65;100.00;99334.13;5952146;28;20032;-72
2024/01/17 04:54:34;;;;;;;12.13;4.60;;;;;;;-3.59;100.00;99342.44;5943123;29;20391;-71
2024/01/17 04:57:30;;;;;;;9.02;4.38;;;;;;;-3.66;100.00;99329.00;5955477;29;20555;-72
2024/01/17 05:00:25;;;;;;;12.97;4.80;;;;;;;-3.67;100.00;99343.72;5944155;29;20067;-73
2024/01/17 05:03:20;;;;;;;12.40;4.07;;;;;;;-3.70;100.00;99341.34;5952574;29;20059;-72
2024/01/17 05:06:17;;;;;;;11.40;4.18;;;;;;;-3.80;100.00;99337.59;5960996;29;20087;-72
2024/01/17 05:09:12;;;;;;;13.65;4.47;;;;;;;-3.75;100.00;99352.88;5958409;29;20405;-72
2024/01/17 05:12:07;;;;;;;8.77;3.70;;;;;;;-3.78;100.00;99353.06;5952418;29;20036;-72
2024/01/17 05:15:03;;;;;;;18.50;4.43;;;;;;;-3.88;100.00;99332.03;5950900;29;20067;-72
2024/01/17 05:17:58;;;;;;;13.35;3.45;;;;;;;-3.78;100.00;99338.31;5953784;29;20040;-72
2024/01/17 05:20:54;;;;;;;12.43;3.80;;;;;;;-3.78;100.00;99325.38;5942842;28;20043;-72
2024/01/17 05:23:49;;;;;;;10.13;4.53;;;;;;;-3.77;100.00;99319.28;5944975;29;20099;-72
2024/01/17 05:26:46;;;;;;;12.85;5.45;;;;;;;-3.67;100.00;99320.41;5956325;29;20031;-72
2024/01/17 05:29:44;;;;;;;14.88;3.47;;;;;;;-3.73;100.00;99328.56;5950301;29;20047;-72
2024/01/17 05:32:39;;;;;;;10.73;4.55;;;;;;;-3.72;100.00;99324.19;5950150;29;20040;-72
2024/01/17 05:35:35;;;;;;;11.03;4.17;;;;;;;-3.80;100.00;99306.53;5958109;29;20492;-72
2024/01/17 05:38:30;;;;;;;12.20;4.27;;;;;;;-3.77;100.00;99306.34;5956232;29;20052;-72
2024/01/17 05:41:25;;;;;;;11.07;3.77;;;;;;;-3.82;100.00;99286.84;5945172;29;20040;-72
2024/01/17 05:44:21;;;;;;;9.97;4.10;;;;;;;-3.84;100.00;99289.53;5960477;29;20036;-72
2024/01/17 05:47:16;;;;;;;12.13;4.20;;;;;;;-3.90;100.00;99304.56;5944844;29;20069;-72
2024/01/17 05:50:14;;;;;;;9.83;3.17;;;;;;;-4.10;100.00;99282.44;5945588;29;20039;-72
2024/01/17 05:53:10;;;;;;;8.23;3.45;;;;;;;-4.09;100.00;99284.13;5955663;29;20028;-72
2024/01/17 05:56:06;;;;;;;12.20;4.00;;;;;;;-4.01;100.00;99281.91;5946882;29;20103;-72
2024/01/17 05:59:01;;;;;;;10.27;3.67;;;;;;;-4.01;100.00;99274.16;5953561;29;20031;-72
2024/01/17 06:01:56;;;;;;;14.17;4.00;;;;;;;-4.10;100.00;99246.22;5956275;29;20484;-72
2024/01/17 06:04:52;;;;;;;12.40;4.80;;;;;;;-3.92;100.00;99245.16;5956656;29;20032;-72
2024/01/17 06:07:47;;;;;;;17.27;3.50;;;;;;;-3.94;100.00;99244.38;5942777;29;20032;-71
2024/01/17 06:10:42;;;;;;;10.00;4.43;;;;;;;-3.93;100.00;99232.28;5945513;28;20039;-72
2024/01/17 06:13:38;;;;;;;10.30;3.03;;;;;;;-3.78;100.00;99237.34;5952306;29;20038;-71
2024/01/17 06:16:33;;;;;;;10.60;3.97;;;;;;;-3.83;100.00;99231.63;5958315;29;20476;-72
2024/01/17 06:19:28;;;;;;;9.00;3.60;;;;;;;-3.93;100.00;99211.56;5949652;28;20048;-72
2024/01/17 06:22:24;;;;;;;8.73;2.90;;;;;;;-3.86;100.00;99218.88;5951195;29;20040;-72
2024/01/17 06:25:19;;;;;;;10.95;3.13;;;;;;;-3.77;100.00;99223.50;5938256;29;20110;-71
2024/01/17 06:28:14;;;;;;;6.43;3.37;;;;;;;-3.80;100.00;99205.56;5950433;29;20473;-72
2024/01/17 06:31:10;;;;;;;9.20;3.30;;;;;;;-3.75;100.00;99219.03;5946647;29;20122;-72
2024/01/17 06:34:05;;;;;;;6.17;2.80;;;;;;;-3.79;100.00;99207.22;5942330;29;20030;-72
2024/01/17 06:37:01;;;;;;;10.18;4.35;;;;;;;-3.77;100.00;99202.78;5957493;29;20098;-72
2024/01/17 06:39:56;;;;;;;9.03;3.40;;;;;;;-3.85;100.00;99215.38;5947264;29;20062;-72
2024/01/17 06:42:51;;;;;;;11.10;3.40;;;;;;;-3.88;100.00;99204.34;5957372;29;20058;-72
2024/01/17 06:45:47;;;;;;;9.63;3.37;;;;;;;-3.89;100.00;99211.31;5956789;29;20039;-72
2024/01/17 06:48:42;;;;;;;20.97;4.13;;;;;;;-3.99;100.00;99181.72;5954073;29;20035;-72
2024/01/17 06:51:38;;;;;;;12.13;4.33;;;;;;;-3.91;100.00;99202.78;5953954;29;20366;-72
2024/01/17 06:54:33;;;;;;;10.75;4.03;;;;;;;-3.96;100.00;99191.88;5951011;29;20453;-72
2024/01/17 06:57:32;;;;;;;9.65;2.97;;;;;;;-3.86;100.00;99180.03;5948645;29;20036;-72
2024/01/17 07:00:28;;;;;;;10.75;4.18;;;;;;;-3.92;100.00;99177.00;5955521;29;20054;-72
2024/01/17 07:03:23;;;;;;;10.63;4.28;;;;;;;-3.83;100.00;99171.28;5951358;29;20399;-71
2024/01/17 07:06:18;;;;;;;8.07;4.10;;;;;;;-3.78;100.00;99175.22;5955265;29;20039;-72
2024/01/17 07:09:14;;;;;;;9.23;4.07;;;;;;;-3.78;100.00;99175.22;5948062;29;20090;-72
2024/01/17 07:12:09;;;;;;;11.40;4.28;;;;;;;-3.79;100.00;99162.38;5958282;29;20271;-72
2024/01/17 07:15:05;;;;;;;16.43;5.40;;;;;;;-3.76;100.00;99157.84;5953255;29;20126;-72
2024/01/17 07:18:00;;;;;;;12.00;4.55;;;;;;;-3.80;100.00;99155.53;5953354;29;20031;-72
2024/01/17 07:20:56;;;;;;;12.30;4.43;;;;;;;-3.76;100.00;99157.84;5956191;29;20031;-72
2024/01/17 07:23:52;;;;;;;7.10;3.10;;;;;;;-3.86;100.00;99143.78;5957275;29;20035;-71
2024/01/17 07:26:47;;;;;;;12.55;3.42;;;;;;;-3.91;100.00;99142.41;5951179;29;20119;-72
2024/01/17 07:29:42;;;;;;;8.97;2.80;;;;;;;-3.79;100.00;99141.66;5952193;29;20032;-71
2024/01/17 07:32:38;;;;;;;13.63;5.37;;;;;;;-3.74;100.00;99145.63;5957568;29;20292;-71
2024/01/17 07:35:34;;;;;;;8.55;3.42;;;;;;;-3.73;100.00;99130.94;5954567;29;20429;-72
2024/01/17 07:38:29;;;;;;;14.93;5.32;;;;;;;-3.79;100.00;99124.38;5953865;29;20119;-72
2024/01/17 07:41:25;;;;;;;10.68;4.30;;;;;;;-3.84;100.00;99108.31;5956347;29;20043;-72
2024/01/17 07:44:20;;;;;;;12.23;4.90;;;;;;;-3.77;100.00;99116.50;5960172;29;20617;-71
2024/01/17 07:47:16;;;;;;;14.30;3.85;;;;;;;-3.79;100.00;99106.25;5946784;29;20036;-71
2024/01/17 07:50:11;;;;;;;9.10;3.63;;;;;;;-3.71;100.00;99103.19;5951987;29;20049;-72
2024/01/17 07:53:07;;;;;;;8.47;3.27;;;;;;;-3.62;100.00;99098.25;5953893;29;20042;-72
2024/01/17 07:56:04;;;;;;;13.32;4.10;;;;;;;-3.61;100.00;99093.91;5954292;29;20363;-72
2024/01/17 07:59:00;;;;;;;12.57;4.45;;;;;;;-3.54;100.00;99089.16;5951966;29;20035;-72
2024/01/17 08:01:55;;;;;;;8.98;4.10;;;;;;;-3.53;100.00;99090.84;5953791;29;20530;-72
2024/01/17 08:04:52;;;;;;;10.98;4.00;;;;;;;-3.61;100.00;99089.56;5953622;29;20028;-72
2024/01/17 08:07:47;;;;;;;12.70;4.45;;;;;;;-3.51;100.00;99109.69;5952178;29;20031;-72
2024/01/17 08:10:43;;;;;;;13.32;4.13;;;;;;;-3.47;100.00;99101.63;5947674;29;20038;-72
2024/01/17 08:13:38;;;;;;;9.27;4.07;;;;;;;-3.49;100.00;99084.53;5951976;29;20366;-72
2024/01/17 08:16:33;;;;;;;14.23;4.70;;;;;;;-3.49;100.00;99076.75;5955014;29;20079;-72
2024/01/17 08:19:29;;;;;;;8.90;3.90;;;;;;;-3.44;100.00;99074.69;5952432;29;20122;-72
2024/01/17 08:22:24;;;;;;;11.90;4.07;;;;;;;-3.36;100.00;99064.66;5946432;29;20272;-72
2024/01/17 08:25:19;;;;;;;11.83;4.40;;;;;;;-3.30;100.00;99061.66;5951544;29;20136;-72
2024/01/17 08:28:15;;;;;;;10.20;3.90;;;;;;;-3.18;100.00;99066.06;5958994;29;20052;-72
2024/01/17 08:31:10;;;;;;;10.20;3.93;;;;;;;-3.19;100.00;99057.47;5953881;29;20035;-72
2024/01/17 08:34:06;;;;;;;7.82;2.83;;;;;;;-3.03;100.00;99070.22;5960620;29;20543;-72
2024/01/17 08:37:01;;;;;;;8.87;3.97;;;;;;;-3.05;100.00;99048.75;5959429;29;20407;-72
2024/01/17 08:39:57;;;;;;;12.13;3.58;;;;;;;-2.93;100.00;99049.69;5952875;28;20317;-73
2024/01/17 08:42:52;;;;;;;9.27;4.03;;;;;;;-2.88;100.00;99043.25;5951769;29;20115;-72
2024/01/17 08:45:47;;;;;;;5.50;3.17;;;;;;;-2.86;100.00;99030.22;5954163;29;20267;-72
2024/01/17 08:48:42;;;;;;;15.43;4.47;;;;;;;-2.75;100.00;99022.53;5956933;29;20129;-72
2024/01/17 08:51:38;;;;;;;10.47;3.67;;;;;;;-2.74;100.00;99019.81;5954931;29;20035;-72
2024/01/17 08:54:34;;;;;;;9.52;4.07;;;;;;;-2.60;100.00;99022.31;5960537;29;20038;-72
2024/01/17 08:57:30;;;;;;;5.93;3.03;;;;;;;-2.62;100.00;98998.25;5956305;29;20391;-73
2024/01/17 09:00:25;;;;;;;7.17;2.87;;;;;;;-2.52;100.00;98985.47;5960065;29;20071;-72
2024/01/17 09:03:20;;;;;;;10.47;3.73;;;;;;;-2.41;100.00;98982.94;5963079;29;20042;-72
2024/01/17 09:06:16;;;;;;;8.67;3.70;;;;;;;-2.43;100.00;98966.66;5949091;29;20031;-73
2024/01/17 09:09:12;;;;;;;6.73;2.40;;;;;;;-2.32;100.00;98958.94;5942608;29;20024;-72
2024/01/17 09:12:08;;;;;;;7.78;3.63;;;;;;;-2.27;100.00;98956.00;5957267;28;20587;-73
2024/01/17 09:15:04;;;;;;;7.18;2.85;;;;;;;-2.17;100.00;98955.25;5958744;29;20039;-73
2024/01/17 09:17:59;;;;;;;8.27;3.45;;;;;;;-2.13;100.00;98948.91;5957815;29;20042;-73
2024/01/17 09:20:55;;;;;;;6.10;2.47;;;;;;;-1.99;100.00;98953.13;5956516;29;20471;-72
2024/01/17 09:23:50;;;;;;;10.53;3.80;;;;;;;-2.03;100.00;98930.88;5958166;29;20111;-72
2024/01/17 09:26:45;;;;;;;8.33;3.00;;;;;;;-1.84;100.00;98944.19;5957690;29;20287;-73
2024/01/17 09:29:41;;;;;;;5.82;2.83;;;;;;;-1.91;100.00;98922.22;5957898;29;20031;-72
2024/01/17 09:32:37;;;;;;;12.60;4.20;;;;;;;-1.72;100.00;98927.72;5938918;29;20070;-73
2024/01/17 09:35:35;;;;;;;9.45;2.97;;;;;;;-1.60;100.00;98937.19;5955740;29;20066;-73
2024/01/17 09:38:30;;;;;;;9.52;3.25;;;;;;;-1.64;100.00;98937.53;5953192;29;20399;-73
2024/01/17 09:41:26;;;;;;;10.70;2.70;;;;;;;-1.67;100.00;98922.19;5957194;29;20043;-73
2024/01/17 09:44:21;;;;;;;8.75;3.47;;;;;;;-1.62;100.00;98928.69;5957528;29;20130;-73
2024/01/17 09:47:18;;;;;;;10.80;3.45;;;;;;;-1.44;100.00;98919.50;5954528;29;20040;-73
2024/01/17 09:50:14;;;;;;;7.75;3.03;;;;;;;-1.56;100.00;98909.22;5953885;29;20468;-74
2024/01/17 09:53:13;;;;;;;7.25;3.42;;;;;;;-1.63;100.00;98906.25;5951648;29;20059;-74
2024/01/17 09:56:08;;;;;;;9.82;3.78;;;;;;;-1.58;100.00;98904.16;5952181;28;20040;-73
2024/01/17 09:59:13;;;;;;;9.93;4.03;;;;;;;-1.43;100.00;98897.78;5956321;29;20120;-75
2024/01/17 10:02:09;;;;;;;8.75;3.10;;;;;;;-1.40;100.00;98881.97;5950276;29;20032;-74
2024/01/17 10:05:07;;;;;;;11.47;4.33;;;;;;;-1.27;100.00;98866.25;5957986;29;20046;-74
2024/01/17 10:08:02;;;;;;;10.75;3.33;;;;;;;-1.27;100.00;98877.47;5946367;29;20023;-75
2024/01/17 10:10:58;;;;;;;10.60;3.30;;;;;;;-1.04;100.00;98861.88;5949054;29;20087;-75
2024/01/17 10:13:53;;;;;;;9.90;3.23;;;;;;;-0.83;100.00;98852.41;5951494;29;20396;-75
2024/01/17 10:16:48;;;;;;;11.73;3.30;;;;;;;-0.71;100.00;98852.25;5950368;29;20032;-75
2024/01/17 10:19:44;;;;;;;11.83;3.60;;;;;;;-0.59;100.00;98853.06;5932547;29;20162;-75
2024/01/17 10:22:41;;;;;;;8.13;2.80;;;;;;;-0.56;100.00;98842.41;5956125;29;20307;-75
2024/01/17 10:25:42;;;;;;;5.35;2.88;;;;;;;-0.69;100.00;98831.34;5948687;29;20039;-74
2024/01/17 10:28:38;;;;;;;6.70;2.75;;;;;;;-0.70;100.00;98842.69;5950438;29;20046;-74
2024/01/17 10:31:33;;;;;;;9.17;3.47;;;;;;;-0.78;100.00;98824.25;5951844;29;20031;-74
2024/01/17 10:34:29;;;;;;;9.00;3.07;;;;;;;-0.85;100.00;98826.53;5958404;29;20082;-74
2024/01/17 10:37:26;;;;;;;6.82;2.63;;;;;;;-0.90;100.00;98827.84;5950614;29;20036;-73
2024/01/17 10:40:21;;;;;;;7.53;3.35;;;;;;;-1.01;100.00;98812.25;5952435;29;20385;-74
2024/01/17 10:43:16;;;;;;;9.45;3.05;;;;;;;-0.94;100.00;98811.63;5951285;29;20059;-74
2024/01/17 10:46:12;;;;;;;11.05;2.85;;;;;;;-0.92;100.00;98808.91;5952351;28;20039;-74
2024/01/17 10:49:07;;;;;;;9.07;2.43;;;;;;;-0.88;100.00;98797.31;5953019;29;20050;-73
2024/01/17 10:52:11;;;;;;;9.05;3.17;;;;;;;-0.85;100.00;98790.09;5949112;29;20391;-73
2024/01/17 10:55:08;;;;;;;5.78;2.53;;;;;;;-0.64;100.00;98774.53;5946195;29;20308;-74
2024/01/17 10:58:10;;;;;;;9.82;3.80;;;;;;;-0.43;100.00;98767.59;5951675;29;20032;-74
2024/01/17 11:01:08;;;;;;;10.25;3.30;;;;;;;-0.51;100.00;98780.41;5955996;29;20031;-74
2024/01/17 11:04:16;;;;;;;7.20;2.70;;;;;;;-0.58;100.00;98761.03;5952087;29;20043;-74
2024/01/17 11:07:13;;;;;;;8.70;3.97;;;;;;;-0.52;100.00;98764.94;5953374;29;20480;-75
2024/01/17 11:10:09;;;;;;;11.85;3.28;;;;;;;-0.46;100.00;98752.22;5952743;29;20560;-75
2024/01/17 11:13:05;;;;;;;10.40;3.05;;;;;;;-0.32;100.00;98748.50;5955419;29;20040;-75
2024/01/17 11:16:01;;;;;;;11.02;3.35;;;;;;;-0.27;100.00;98741.94;5897124;29;1708098;-74
2024/01/17 11:18:57;;;;;;;7.38;3.13;;;;;;;-0.31;100.00;98745.78;5954377;29;20038;-75
2024/01/17 11:21:52;;;;;;;11.70;3.75;;;;;;;-0.34;100.00;98725.19;5956564;28;20023;-74
2024/01/17 11:25:01;;;;;;;11.27;3.17;;;;;;;-0.34;100.00;98722.59;5950694;29;20619;-76
2024/01/17 11:28:21;;;;;;;6.63;2.55;;;;;;;-0.12;100.00;98717.25;5954779;29;20035;-75
2024/01/17 11:31:27;;;;;;;10.60;4.05;;;;;;;-0.19;100.00;98704.88;5954123;29;20038;-75
2024/01/17 11:34:22;;;;;;;7.85;2.80;;;;;;;-0.38;100.00;98715.97;5953316;29;20038;-75
2024/01/17 11:37:28;;;;;;;8.82;3.13;;;;;;;-0.17;100.00;98700.38;5955939;29;20035;-75
2024/01/17 11:40:24;;;;;;;7.55;2.60;;;;;;;-0.04;100.00;98695.78;5950773;29;20046;-75
2024/01/17 11:43:19;;;;;;;13.05;3.20;;;;;;;-0.26;99.21;98677.69;5947917;29;20032;-75
2024/01/17 11:46:15;;;;;;;12.52;3.63;;;;;;;-0.51;100.00;98689.31;5955283;29;20040;-75
2024/01/17 11:49:14;;;;;;;7.70;3.40;;;;;;;-0.36;100.00;98688.06;5953162;29;20036;-74
2024/01/17 11:52:35;;;;;;;9.38;3.45;;;;;;;-0.29;100.00;98672.72;5947885;29;20027;-73
2024/01/17 11:55:31;;;;;;;8.15;3.42;;;;;;;-0.24;100.00;98663.59;5954954;29;20114;-75
2024/01/17 11:58:50;;;;;;;9.20;3.78;;;;;;;-0.31;97.73;98653.81;5954464;29;20513;-74
2024/01/17 12:01:46;;;;;;;10.45;3.58;;;;;;;-0.19;97.13;98664.00;5948724;29;20035;-73
2024/01/17 12:04:44;;;;;;;12.15;3.25;;;;;;;-0.10;97.58;98650.22;5953427;29;20032;-74
2024/01/17 12:07:40;;;;;;;12.57;3.80;;;;;;;-0.42;98.29;98652.13;5954036;29;20122;-73
2024/01/17 12:10:36;;;;;;;10.10;3.80;;;;;;;-0.64;100.00;98629.66;5950889;29;20030;-73
2024/01/17 12:13:31;;;;;;;8.80;3.60;;;;;;;-0.70;100.00;98626.72;5946774;29;20063;-73
2024/01/17 12:16:26;;;;;;;11.70;4.40;;;;;;;-0.71;100.00;98615.47;5953689;29;20039;-73
2024/01/17 12:19:22;;;;;;;9.90;4.43;;;;;;;-0.58;100.00;98611.88;5950895;29;20043;-73
2024/01/17 12:22:17;;;;;;;10.10;4.60;;;;;;;-0.54;100.00;98608.09;5949745;29;20122;-72
2024/01/17 12:25:12;;;;;;;10.53;3.90;;;;;;;-0.48;100.00;98607.53;5949369;29;20675;-75
2024/01/17 12:28:16;;;;;;;13.07;4.27;;;;;;;-0.58;100.00;98597.09;5953626;29;20483;-74
2024/01/17 12:31:12;;;;;;;11.80;4.03;;;;;;;-0.70;100.00;98596.34;5950404;29;20028;-74
2024/01/17 12:34:07;;;;;;;10.68;4.38;;;;;;;-0.80;100.00;98584.22;5956185;29;20086;-73
2024/01/17 12:37:03;;;;;;;8.02;3.17;;;;;;;-0.70;100.00;98591.13;5957038;29;20368;-73
2024/01/17 12:39:59;;;;;;;10.75;4.78;;;;;;;-0.61;99.72;98585.16;5953100;29;20032;-73
2024/01/17 12:42:57;;;;;;;12.77;4.20;;;;;;;-0.64;97.32;98579.38;5950430;29;20056;-73
2024/01/17 12:45:53;;;;;;;8.57;3.38;;;;;;;-0.62;96.59;98569.66;5949311;29;20044;-73
2024/01/17 12:48:59;;;;;;;11.38;4.75;;;;;;;-0.51;97.22;98556.56;5947300;29;20051;-73
2024/01/17 12:51:55;;;;;;;10.43;4.32;;;;;;;-0.35;96.12;98563.91;5951474;29;20395;-72
2024/01/17 12:54:50;;;;;;;9.45;3.95;;;;;;;-0.51;95.96;98558.34;5946040;29;20032;-73
2024/01/17 12:57:45;;;;;;;10.05;4.45;;;;;;;-0.53;96.31;98553.28;5952491;29;20035;-72
2024/01/17 13:00:41;;;;;;;11.00;4.40;;;;;;;-0.59;97.51;98546.00;5944227;29;20031;-73
2024/01/17 13:03:38;;;;;;;8.38;4.03;;;;;;;-0.50;96.79;98545.22;5949365;29;20324;-73
2024/01/17 13:06:47;;;;;;;8.65;3.92;;;;;;;-0.36;96.11;98549.25;5948815;29;20558;-73
2024/01/17 13:09:43;;;;;;;8.32;3.35;;;;;;;-0.27;97.15;98551.88;5941935;29;20031;-73
2024/01/17 13:12:38;;;;;;;7.90;3.83;;;;;;;-0.29;98.44;98542.56;5951917;29;20058;-72
2024/01/17 13:15:37;;;;;;;8.90;3.50;;;;;;;-0.36;97.49;98550.09;5957465;29;20506;-71
2024/01/17 13:18:33;;;;;;;14.55;5.03;;;;;;;-0.44;97.89;98539.50;5953586;29;20036;-72
2024/01/17 13:21:28;;;;;;;12.07;4.40;;;;;;;-0.49;98.42;98520.81;5953313;29;20087;-73
2024/01/17 13:24:24;;;;;;;14.97;4.47;;;;;;;-0.46;100.00;98522.38;5957992;29;20039;-72
2024/01/17 13:27:19;;;;;;;12.50;4.93;;;;;;;-0.51;99.39;98512.34;5950460;29;20295;-72
2024/01/17 13:30:14;;;;;;;11.27;4.40;;;;;;;-0.42;99.15;98523.75;5951700;29;20145;-72
2024/01/17 13:33:10;;;;;;;12.63;4.50;;;;;;;-0.39;96.36;98516.50;5950777;29;20044;-71
2024/01/17 13:36:06;;;;;;;14.32;4.47;;;;;;;-0.46;97.38;98509.34;5952661;29;20079;-71